Green Valley, IL (61534)

8:10 AM CST on February 09, 2016 (GMT -0600)
Green Acres | | Change Station
CLOSE
Current Station
Personal Weather Station
Location: Green Valley, IL
Elevation: 516 ft
Nearby Weather Stations
Active Advisory: Special Statement

Elev 516 ft 40.48 °N, 89.66 °W | Updated 8 minutes ago

Snow
Snow
16.1 °F
Feels Like 3 °F
N
11.0
Wind Variable Wind from NW
Gusts 18.0 mph

Today
High -- | Low -- °F
--% Chance of Precip.
Yesterday
High -- | Low -- °F
Precip. -- in
Pressure 29.95 in
Visibility 5.0 miles
Clouds Few 1900 ft
Overcast 2600 ft
Windchill 3 °F
Dew Point 12 °F
Humidity 82%
Rainfall 0.00 in
Snow Depth Not available.
7:00 AM 5:26 PM
New Moon, 1% visible
METAR KPIA 091354Z 33009G15KT 5SM -SN FEW019 OVC026 M10/M13 A2991 RMK AO2 SLP141 P0000 T11001133
Pressure 29.95 in
Visibility 5.0 miles
Clouds Few 1900 ft
Overcast 2600 ft
Windchill 3 °F
Dew Point 12 °F
Humidity 82%
Rainfall 0.00 in
Snow Depth Not available.
7:00 AM 5:26 PM
New Moon, 1% visible
METAR KPIA 091354Z 33009G15KT 5SM -SN FEW019 OVC026 M10/M13 A2991 RMK AO2 SLP141 P0000 T11001133

10-Day Weather Forecast

Almanac

Astronomy

Feb. 09, 2016 Rise Set
Actual Time
Civil Twilight
Nautical Twilight
Astronomical Twilight
Moon
Length of Visible Light
Length of Day
Tomorrow will be .
, % of the Moon is Illuminated

Today's Extremes

State Highs State Lows

Community

WunderPhotos

Upload Photos

1,891,597 photos uploaded!

WunderBlog® & News

Nearby

Air Quality

  Air Quality AQ Index Pollutant
Not available.

Snow Depth

Station Depth Elevation

Earthquake Activity

City Distance Mag. Time & Date
Minimum magnitude displayed is 2.5.

Coastal Water Temperatures

Place Temperature

Stations

Nearby Weather Stations

Station Location Temp. Windchill Dew Point Humidity Wind Precip. Elev Updated Type
                   

Watches & Warnings

Special Statement
Issued: 6:52 AM CST Feb. 9, 2016 – National Weather Service

Scattered snow showers will continue across central and southeast
Illinois into this afternoon. While accumulations will remain
minor... there will be slick spots on many area roadways.
Motorists are advised to drive with caution. Slow down and plan on
extra time to arrive at your destination today.


Onton


652 am CST Tue Feb 9 2016

Scattered snow showers will continue across central and southeast
Illinois into this afternoon. While accumulations will remain
minor... there will be slick spots on many area roadways.
Motorists are advised to drive with caution. Slow down and plan on
extra time to arrive at your destination today.


Onton

652 am CST Tue Feb 9 2016

Scattered snow showers will continue across central and southeast
Illinois into this afternoon. While accumulations will remain
minor... there will be slick spots on many area roadways.
Motorists are advised to drive with caution. Slow down and plan on
extra time to arrive at your destination today.


Onton